sensor_id;sensor_type;location;lat;lon;timestamp;temperature;humidity
41557;DHT22;27720;51.992;5.890;2023-12-28T12:06:20;10.40;99.90
41557;DHT22;27720;51.992;5.890;2023-12-28T12:08:46;10.70;99.90
41557;DHT22;27720;51.992;5.890;2023-12-28T12:11:12;11.30;99.90
41557;DHT22;27720;51.992;5.890;2023-12-28T12:13:38;12.00;99.90
41557;DHT22;27720;51.992;5.890;2023-12-28T12:16:04;12.40;99.90
41557;DHT22;27720;51.992;5.890;2023-12-28T12:18:32;12.80;99.90
41557;DHT22;27720;51.992;5.890;2023-12-28T12:20:58;13.00;99.90
41557;DHT22;27720;51.992;5.890;2023-12-28T12:23:24;13.20;99.90
41557;DHT22;27720;51.992;5.890;2023-12-28T12:25:51;13.40;99.90
41557;DHT22;27720;51.992;5.890;2023-12-28T12:28:17;13.50;99.90
41557;DHT22;27720;51.992;5.890;2023-12-28T12:30:51;13.70;99.90
41557;DHT22;27720;51.992;5.890;2023-12-28T12:33:18;13.70;99.90
41557;DHT22;27720;51.992;5.890;2023-12-28T12:35:45;13.80;99.90
41557;DHT22;27720;51.992;5.890;2023-12-28T12:38:11;13.80;99.90
41557;DHT22;27720;51.992;5.890;2023-12-28T12:40:39;13.80;99.90
41557;DHT22;27720;51.992;5.890;2023-12-28T12:43:06;13.80;99.90
41557;DHT22;27720;51.992;5.890;2023-12-28T12:45:35;13.80;99.90
41557;DHT22;27720;51.992;5.890;2023-12-28T12:48:05;13.90;99.90
41557;DHT22;27720;51.992;5.890;2023-12-28T12:50:33;13.90;99.90
41557;DHT22;27720;51.992;5.890;2023-12-28T12:53:00;13.90;99.90
41557;DHT22;27720;51.992;5.890;2023-12-28T12:55:26;13.90;99.90
41557;DHT22;27720;51.992;5.890;2023-12-28T12:57:52;13.90;99.90
41557;DHT22;27720;51.992;5.890;2023-12-28T13:00:21;13.90;99.90
41557;DHT22;27720;51.992;5.890;2023-12-28T13:02:49;13.90;99.90
41557;DHT22;27720;51.992;5.890;2023-12-28T13:05:17;13.90;99.90
41557;DHT22;27720;51.992;5.890;2023-12-28T13:07:43;13.90;99.90
41557;DHT22;27720;51.992;5.890;2023-12-28T13:10:09;13.90;99.90
41557;DHT22;27720;51.992;5.890;2023-12-28T13:12:36;13.90;99.90
41557;DHT22;27720;51.992;5.890;2023-12-28T13:15:01;13.90;99.90
41557;DHT22;27720;51.992;5.890;2023-12-28T13:17:27;13.90;99.90
41557;DHT22;27720;51.992;5.890;2023-12-28T13:19:53;13.90;99.90
41557;DHT22;27720;51.992;5.890;2023-12-28T13:22:18;13.90;99.90
41557;DHT22;27720;51.992;5.890;2023-12-28T13:24:44;13.90;99.90
41557;DHT22;27720;51.992;5.890;2023-12-28T13:27:10;13.90;99.90
41557;DHT22;27720;51.992;5.890;2023-12-28T13:29:36;13.90;99.90
41557;DHT22;27720;51.992;5.890;2023-12-28T13:32:02;13.90;99.90
41557;DHT22;27720;51.992;5.890;2023-12-28T13:34:27;13.90;99.90
41557;DHT22;27720;51.992;5.890;2023-12-28T13:36:54;13.90;99.90
41557;DHT22;27720;51.992;5.890;2023-12-28T13:39:20;13.90;99.90
41557;DHT22;27720;51.992;5.890;2023-12-28T13:41:45;13.90;99.90
41557;DHT22;27720;51.992;5.890;2023-12-28T13:44:11;13.80;99.90
41557;DHT22;27720;51.992;5.890;2023-12-28T13:46:38;13.80;99.90
41557;DHT22;27720;51.992;5.890;2023-12-28T13:49:04;13.80;99.90
41557;DHT22;27720;51.992;5.890;2023-12-28T13:51:30;13.80;99.90
41557;DHT22;27720;51.992;5.890;2023-12-28T13:53:56;13.80;99.90
41557;DHT22;27720;51.992;5.890;2023-12-28T13:56:22;13.80;99.90
41557;DHT22;27720;51.992;5.890;2023-12-28T13:58:47;13.80;99.90
41557;DHT22;27720;51.992;5.890;2023-12-28T14:01:13;13.80;99.90
41557;DHT22;27720;51.992;5.890;2023-12-28T14:03:39;13.80;99.90
41557;DHT22;27720;51.992;5.890;2023-12-28T14:06:05;13.80;99.90
41557;DHT22;27720;51.992;5.890;2023-12-28T14:08:31;13.80;99.90
41557;DHT22;27720;51.992;5.890;2023-12-28T14:10:56;13.80;99.90
41557;DHT22;27720;51.992;5.890;2023-12-28T14:13:22;13.90;99.90
41557;DHT22;27720;51.992;5.890;2023-12-28T14:15:48;13.90;99.90
41557;DHT22;27720;51.992;5.890;2023-12-28T14:18:14;13.90;99.90
41557;DHT22;27720;51.992;5.890;2023-12-28T14:20:40;13.90;99.90
41557;DHT22;27720;51.992;5.890;2023-12-28T14:23:06;13.90;99.90
41557;DHT22;27720;51.992;5.890;2023-12-28T14:25:32;13.90;99.90
41557;DHT22;27720;51.992;5.890;2023-12-28T14:27:58;13.90;99.90
41557;DHT22;27720;51.992;5.890;2023-12-28T14:30:25;13.90;99.90
41557;DHT22;27720;51.992;5.890;2023-12-28T14:32:51;13.80;99.90
41557;DHT22;27720;51.992;5.890;2023-12-28T14:35:17;13.80;99.90
41557;DHT22;27720;51.992;5.890;2023-12-28T14:37:46;13.80;99.90
41557;DHT22;27720;51.992;5.890;2023-12-28T14:40:12;13.80;99.90
41557;DHT22;27720;51.992;5.890;2023-12-28T14:42:38;13.80;99.90
41557;DHT22;27720;51.992;5.890;2023-12-28T14:45:04;13.80;99.90
41557;DHT22;27720;51.992;5.890;2023-12-28T14:47:30;13.80;99.90
41557;DHT22;27720;51.992;5.890;2023-12-28T14:49:56;13.70;99.90
41557;DHT22;27720;51.992;5.890;2023-12-28T14:52:25;13.80;99.90
41557;DHT22;27720;51.992;5.890;2023-12-28T14:54:50;13.80;99.90
41557;DHT22;27720;51.992;5.890;2023-12-28T14:57:19;13.80;99.90
41557;DHT22;27720;51.992;5.890;2023-12-28T14:59:45;13.80;99.90
41557;DHT22;27720;51.992;5.890;2023-12-28T15:02:11;13.70;99.90
41557;DHT22;27720;51.992;5.890;2023-12-28T15:04:36;13.70;99.90
41557;DHT22;27720;51.992;5.890;2023-12-28T15:07:04;13.70;99.90
41557;DHT22;27720;51.992;5.890;2023-12-28T15:09:29;13.70;99.90
41557;DHT22;27720;51.992;5.890;2023-12-28T15:11:56;13.70;99.90
41557;DHT22;27720;51.992;5.890;2023-12-28T15:14:22;13.70;99.90
41557;DHT22;27720;51.992;5.890;2023-12-28T15:16:48;13.70;99.90
41557;DHT22;27720;51.992;5.890;2023-12-28T15:19:14;13.70;99.90
41557;DHT22;27720;51.992;5.890;2023-12-28T15:21:40;13.70;99.90
41557;DHT22;27720;51.992;5.890;2023-12-28T15:24:07;13.70;99.90
41557;DHT22;27720;51.992;5.890;2023-12-28T15:26:33;13.70;99.90
41557;DHT22;27720;51.992;5.890;2023-12-28T15:28:59;13.70;99.90
41557;DHT22;27720;51.992;5.890;2023-12-28T15:31:24;13.70;99.90
41557;DHT22;27720;51.992;5.890;2023-12-28T15:33:50;13.70;99.90
41557;DHT22;27720;51.992;5.890;2023-12-28T15:36:16;13.70;99.90
41557;DHT22;27720;51.992;5.890;2023-12-28T15:38:42;13.70;99.90
41557;DHT22;27720;51.992;5.890;2023-12-28T15:41:08;13.70;99.90
41557;DHT22;27720;51.992;5.890;2023-12-28T15:43:34;13.70;99.90
41557;DHT22;27720;51.992;5.890;2023-12-28T15:46:00;13.70;99.90
41557;DHT22;27720;51.992;5.890;2023-12-28T15:48:26;13.70;99.90
41557;DHT22;27720;51.992;5.890;2023-12-28T15:50:51;13.60;99.90
41557;DHT22;27720;51.992;5.890;2023-12-28T15:53:17;13.70;99.90
41557;DHT22;27720;51.992;5.890;2023-12-28T15:55:43;13.70;99.90
41557;DHT22;27720;51.992;5.890;2023-12-28T15:58:08;13.70;99.90
41557;DHT22;27720;51.992;5.890;2023-12-28T16:00:34;13.70;99.90
41557;DHT22;27720;51.992;5.890;2023-12-28T16:03:01;13.70;99.90
41557;DHT22;27720;51.992;5.890;2023-12-28T16:05:26;13.70;99.90
41557;DHT22;27720;51.992;5.890;2023-12-28T16:07:52;13.70;99.90
41557;DHT22;27720;51.992;5.890;2023-12-28T16:10:18;13.70;99.90
41557;DHT22;27720;51.992;5.890;2023-12-28T16:12:43;13.70;99.90
41557;DHT22;27720;51.992;5.890;2023-12-28T16:15:10;13.60;99.90
41557;DHT22;27720;51.992;5.890;2023-12-28T16:18:19;13.60;99.90
41557;DHT22;27720;51.992;5.890;2023-12-28T16:24:42;13.60;99.90
41557;DHT22;27720;51.992;5.890;2023-12-28T16:27:08;13.70;99.90
41557;DHT22;27720;51.992;5.890;2023-12-28T16:29:33;13.60;99.90
41557;DHT22;27720;51.992;5.890;2023-12-28T16:31:59;13.60;99.90
41557;DHT22;27720;51.992;5.890;2023-12-28T16:34:29;13.60;99.90
41557;DHT22;27720;51.992;5.890;2023-12-28T16:36:55;13.50;99.90
41557;DHT22;27720;51.992;5.890;2023-12-28T16:39:21;13.50;99.90
41557;DHT22;27720;51.992;5.890;2023-12-28T16:41:46;13.50;99.90
41557;DHT22;27720;51.992;5.890;2023-12-28T16:44:12;13.50;99.90
41557;DHT22;27720;51.992;5.890;2023-12-28T16:46:44;13.50;99.90
41557;DHT22;27720;51.992;5.890;2023-12-28T16:49:10;13.50;99.90
41557;DHT22;27720;51.992;5.890;2023-12-28T16:51:36;13.50;99.90
41557;DHT22;27720;51.992;5.890;2023-12-28T16:54:02;13.50;99.90
41557;DHT22;27720;51.992;5.890;2023-12-28T16:56:29;13.50;99.90
41557;DHT22;27720;51.992;5.890;2023-12-28T16:58:55;13.50;99.90
41557;DHT22;27720;51.992;5.890;2023-12-28T17:01:20;13.50;99.90
41557;DHT22;27720;51.992;5.890;2023-12-28T17:03:46;13.50;99.90
41557;DHT22;27720;51.992;5.890;2023-12-28T17:06:13;13.50;99.90
41557;DHT22;27720;51.992;5.890;2023-12-28T17:08:40;13.40;99.90
41557;DHT22;27720;51.992;5.890;2023-12-28T17:11:06;13.40;99.90
41557;DHT22;27720;51.992;5.890;2023-12-28T17:13:32;13.40;99.90
41557;DHT22;27720;51.992;5.890;2023-12-28T17:15:58;13.40;99.90
41557;DHT22;27720;51.992;5.890;2023-12-28T17:18:24;13.40;99.90
41557;DHT22;27720;51.992;5.890;2023-12-28T17:20:50;13.40;99.90
41557;DHT22;27720;51.992;5.890;2023-12-28T17:23:35;13.40;99.90
41557;DHT22;27720;51.992;5.890;2023-12-28T17:28:46;13.40;99.90
41557;DHT22;27720;51.992;5.890;2023-12-28T17:31:17;13.40;99.90
41557;DHT22;27720;51.992;5.890;2023-12-28T17:33:43;13.50;99.90
41557;DHT22;27720;51.992;5.890;2023-12-28T17:36:10;13.40;99.90
41557;DHT22;27720;51.992;5.890;2023-12-28T17:38:36;13.50;99.90
41557;DHT22;27720;51.992;5.890;2023-12-28T17:41:03;13.40;99.90
41557;DHT22;27720;51.992;5.890;2023-12-28T17:43:45;13.40;99.90
41557;DHT22;27720;51.992;5.890;2023-12-28T17:46:17;13.40;99.90
41557;DHT22;27720;51.992;5.890;2023-12-28T17:48:48;13.40;99.90
41557;DHT22;27720;51.992;5.890;2023-12-28T17:51:17;13.40;99.90
41557;DHT22;27720;51.992;5.890;2023-12-28T17:53:43;13.40;99.90
41557;DHT22;27720;51.992;5.890;2023-12-28T17:56:10;13.40;99.90
41557;DHT22;27720;51.992;5.890;2023-12-28T17:58:39;13.40;99.90
41557;DHT22;27720;51.992;5.890;2023-12-28T18:01:05;13.40;99.90
41557;DHT22;27720;51.992;5.890;2023-12-28T18:03:30;13.40;99.90
41557;DHT22;27720;51.992;5.890;2023-12-28T18:05:56;13.40;99.90
41557;DHT22;27720;51.992;5.890;2023-12-28T18:08:21;13.40;99.90
41557;DHT22;27720;51.992;5.890;2023-12-28T18:10:47;13.40;99.90
41557;DHT22;27720;51.992;5.890;2023-12-28T18:13:13;13.40;99.90
41557;DHT22;27720;51.992;5.890;2023-12-28T18:15:38;13.30;99.90
41557;DHT22;27720;51.992;5.890;2023-12-28T18:18:04;13.40;99.90
41557;DHT22;27720;51.992;5.890;2023-12-28T18:20:33;13.40;99.90
41557;DHT22;27720;51.992;5.890;2023-12-28T18:22:58;13.40;99.90
41557;DHT22;27720;51.992;5.890;2023-12-28T18:25:24;13.40;99.90
41557;DHT22;27720;51.992;5.890;2023-12-28T18:27:50;13.40;99.90
41557;DHT22;27720;51.992;5.890;2023-12-28T18:30:15;13.40;99.90
41557;DHT22;27720;51.992;5.890;2023-12-28T18:32:41;13.40;99.90
41557;DHT22;27720;51.992;5.890;2023-12-28T18:35:07;13.40;99.90
41557;DHT22;27720;51.992;5.890;2023-12-28T18:37:33;13.40;99.90
41557;DHT22;27720;51.992;5.890;2023-12-28T18:39:59;13.40;99.90
41557;DHT22;27720;51.992;5.890;2023-12-28T18:42:24;13.40;99.90
41557;DHT22;27720;51.992;5.890;2023-12-28T18:44:50;13.40;99.90
41557;DHT22;27720;51.992;5.890;2023-12-28T18:47:16;13.50;99.90
41557;DHT22;27720;51.992;5.890;2023-12-28T18:49:41;13.40;99.90
41557;DHT22;27720;51.992;5.890;2023-12-28T18:52:07;13.40;99.90
41557;DHT22;27720;51.992;5.890;2023-12-28T18:54:33;13.40;99.90
41557;DHT22;27720;51.992;5.890;2023-12-28T18:56:58;13.40;99.90
41557;DHT22;27720;51.992;5.890;2023-12-28T18:59:24;13.40;99.90
41557;DHT22;27720;51.992;5.890;2023-12-28T19:01:51;13.40;99.90
41557;DHT22;27720;51.992;5.890;2023-12-28T19:04:17;13.40;99.90
41557;DHT22;27720;51.992;5.890;2023-12-28T19:06:43;13.50;99.90
41557;DHT22;27720;51.992;5.890;2023-12-28T19:09:09;13.40;99.90
41557;DHT22;27720;51.992;5.890;2023-12-28T19:11:35;13.40;99.90
41557;DHT22;27720;51.992;5.890;2023-12-28T19:14:01;13.40;99.90
41557;DHT22;27720;51.992;5.890;2023-12-28T19:16:27;13.40;99.90
41557;DHT22;27720;51.992;5.890;2023-12-28T19:18:53;13.40;99.90
41557;DHT22;27720;51.992;5.890;2023-12-28T19:21:19;13.40;99.90
41557;DHT22;27720;51.992;5.890;2023-12-28T19:23:46;13.40;99.90
41557;DHT22;27720;51.992;5.890;2023-12-28T19:26:13;13.40;99.90
41557;DHT22;27720;51.992;5.890;2023-12-28T19:28:44;13.40;99.90
41557;DHT22;27720;51.992;5.890;2023-12-28T19:31:42;13.40;99.90
41557;DHT22;27720;51.992;5.890;2023-12-28T19:44:46;13.50;99.90
41557;DHT22;27720;51.992;5.890;2023-12-28T19:47:12;13.50;99.90
41557;DHT22;27720;51.992;5.890;2023-12-28T19:49:38;13.50;99.90
41557;DHT22;27720;51.992;5.890;2023-12-28T19:52:04;13.50;99.90
41557;DHT22;27720;51.992;5.890;2023-12-28T19:54:30;13.50;99.90
41557;DHT22;27720;51.992;5.890;2023-12-28T19:56:56;13.50;99.90
41557;DHT22;27720;51.992;5.890;2023-12-28T19:59:21;13.50;99.90
41557;DHT22;27720;51.992;5.890;2023-12-28T20:01:47;13.50;99.90
41557;DHT22;27720;51.992;5.890;2023-12-28T20:04:13;13.50;99.90
41557;DHT22;27720;51.992;5.890;2023-12-28T20:06:43;13.50;99.90
41557;DHT22;27720;51.992;5.890;2023-12-28T20:09:09;13.50;99.90
41557;DHT22;27720;51.992;5.890;2023-12-28T20:11:35;13.60;99.90
41557;DHT22;27720;51.992;5.890;2023-12-28T20:14:00;13.50;99.90
41557;DHT22;27720;51.992;5.890;2023-12-28T20:16:26;13.50;99.90
41557;DHT22;27720;51.992;5.890;2023-12-28T20:18:52;13.50;99.90
41557;DHT22;27720;51.992;5.890;2023-12-28T20:21:19;13.50;99.90
41557;DHT22;27720;51.992;5.890;2023-12-28T20:23:45;13.50;99.90
41557;DHT22;27720;51.992;5.890;2023-12-28T20:26:11;13.60;99.90
41557;DHT22;27720;51.992;5.890;2023-12-28T20:28:38;13.50;99.90
41557;DHT22;27720;51.992;5.890;2023-12-28T20:31:03;13.60;99.90
41557;DHT22;27720;51.992;5.890;2023-12-28T20:33:31;13.60;99.90
41557;DHT22;27720;51.992;5.890;2023-12-28T20:35:57;13.60;99.90
41557;DHT22;27720;51.992;5.890;2023-12-28T20:38:23;13.60;99.90
41557;DHT22;27720;51.992;5.890;2023-12-28T20:40:48;13.60;99.90
41557;DHT22;27720;51.992;5.890;2023-12-28T20:43:16;13.60;99.90
41557;DHT22;27720;51.992;5.890;2023-12-28T20:45:42;13.60;99.90
41557;DHT22;27720;51.992;5.890;2023-12-28T20:48:08;13.60;99.90
41557;DHT22;27720;51.992;5.890;2023-12-28T20:50:33;13.50;99.90
41557;DHT22;27720;51.992;5.890;2023-12-28T20:52:59;13.50;99.90
41557;DHT22;27720;51.992;5.890;2023-12-28T20:55:25;13.50;99.90
41557;DHT22;27720;51.992;5.890;2023-12-28T20:57:51;13.50;99.90
41557;DHT22;27720;51.992;5.890;2023-12-28T21:00:16;13.50;99.90
41557;DHT22;27720;51.992;5.890;2023-12-28T21:02:42;13.50;99.90
41557;DHT22;27720;51.992;5.890;2023-12-28T21:05:08;13.50;99.90
41557;DHT22;27720;51.992;5.890;2023-12-28T21:07:34;13.50;99.90
41557;DHT22;27720;51.992;5.890;2023-12-28T21:10:00;13.40;99.90
41557;DHT22;27720;51.992;5.890;2023-12-28T21:12:26;13.50;99.90
41557;DHT22;27720;51.992;5.890;2023-12-28T21:14:57;13.50;99.90
41557;DHT22;27720;51.992;5.890;2023-12-28T21:17:28;13.60;99.90
41557;DHT22;27720;51.992;5.890;2023-12-28T21:19:54;13.60;99.90
41557;DHT22;27720;51.992;5.890;2023-12-28T21:22:20;13.50;99.90
41557;DHT22;27720;51.992;5.890;2023-12-28T21:24:45;13.60;99.90
41557;DHT22;27720;51.992;5.890;2023-12-28T21:27:11;13.60;99.90
41557;DHT22;27720;51.992;5.890;2023-12-28T21:29:37;13.60;99.90
41557;DHT22;27720;51.992;5.890;2023-12-28T21:32:05;13.60;99.90
41557;DHT22;27720;51.992;5.890;2023-12-28T21:34:32;13.50;99.90
41557;DHT22;27720;51.992;5.890;2023-12-28T21:36:58;13.50;99.90
41557;DHT22;27720;51.992;5.890;2023-12-28T21:39:23;13.50;99.90
41557;DHT22;27720;51.992;5.890;2023-12-28T21:41:49;13.40;99.90
41557;DHT22;27720;51.992;5.890;2023-12-28T21:44:15;13.50;99.90
41557;DHT22;27720;51.992;5.890;2023-12-28T21:46:40;13.40;99.90
41557;DHT22;27720;51.992;5.890;2023-12-28T21:49:07;13.40;99.90
41557;DHT22;27720;51.992;5.890;2023-12-28T21:51:33;13.40;99.90
41557;DHT22;27720;51.992;5.890;2023-12-28T21:54:00;13.40;99.90
41557;DHT22;27720;51.992;5.890;2023-12-28T21:56:25;13.40;99.90
41557;DHT22;27720;51.992;5.890;2023-12-28T21:58:51;13.50;99.90
41557;DHT22;27720;51.992;5.890;2023-12-28T22:01:17;13.40;99.90
41557;DHT22;27720;51.992;5.890;2023-12-28T22:03:46;13.40;99.90
41557;DHT22;27720;51.992;5.890;2023-12-28T22:06:11;13.40;99.90
41557;DHT22;27720;51.992;5.890;2023-12-28T22:08:37;13.50;99.90
41557;DHT22;27720;51.992;5.890;2023-12-28T22:11:03;13.40;99.90
41557;DHT22;27720;51.992;5.890;2023-12-28T22:13:29;13.40;99.90
41557;DHT22;27720;51.992;5.890;2023-12-28T22:15:58;13.40;99.90
41557;DHT22;27720;51.992;5.890;2023-12-28T22:18:25;13.40;99.90
41557;DHT22;27720;51.992;5.890;2023-12-28T22:20:51;13.40;99.90
41557;DHT22;27720;51.992;5.890;2023-12-28T22:23:17;13.40;99.90
41557;DHT22;27720;51.992;5.890;2023-12-28T22:25:43;13.40;99.90
41557;DHT22;27720;51.992;5.890;2023-12-28T22:28:08;13.40;99.90
41557;DHT22;27720;51.992;5.890;2023-12-28T22:30:34;13.50;99.90
41557;DHT22;27720;51.992;5.890;2023-12-28T22:33:01;13.40;99.90
41557;DHT22;27720;51.992;5.890;2023-12-28T22:35:27;13.50;99.90
41557;DHT22;27720;51.992;5.890;2023-12-28T22:37:53;13.50;99.90
41557;DHT22;27720;51.992;5.890;2023-12-28T22:40:19;13.50;99.90
41557;DHT22;27720;51.992;5.890;2023-12-28T22:42:45;13.50;99.90
41557;DHT22;27720;51.992;5.890;2023-12-28T22:45:11;13.60;99.90
41557;DHT22;27720;51.992;5.890;2023-12-28T22:47:38;13.50;99.90
41557;DHT22;27720;51.992;5.890;2023-12-28T22:50:06;13.60;99.90
41557;DHT22;27720;51.992;5.890;2023-12-28T22:52:32;13.60;99.90
41557;DHT22;27720;51.992;5.890;2023-12-28T22:54:57;13.60;99.90
41557;DHT22;27720;51.992;5.890;2023-12-28T22:57:23;13.60;99.90
41557;DHT22;27720;51.992;5.890;2023-12-28T22:59:48;13.60;99.90
41557;DHT22;27720;51.992;5.890;2023-12-28T23:02:14;13.60;99.90
41557;DHT22;27720;51.992;5.890;2023-12-28T23:04:40;13.60;99.90
41557;DHT22;27720;51.992;5.890;2023-12-28T23:07:06;13.60;99.90
41557;DHT22;27720;51.992;5.890;2023-12-28T23:09:32;13.60;99.90
41557;DHT22;27720;51.992;5.890;2023-12-28T23:11:58;13.60;99.90
41557;DHT22;27720;51.992;5.890;2023-12-28T23:14:24;13.60;99.90
41557;DHT22;27720;51.992;5.890;2023-12-28T23:16:50;13.60;99.90
41557;DHT22;27720;51.992;5.890;2023-12-28T23:19:15;13.50;99.90
41557;DHT22;27720;51.992;5.890;2023-12-28T23:21:42;13.50;99.90
41557;DHT22;27720;51.992;5.890;2023-12-28T23:24:08;13.50;99.90
41557;DHT22;27720;51.992;5.890;2023-12-28T23:26:33;13.50;99.90
41557;DHT22;27720;51.992;5.890;2023-12-28T23:28:59;13.50;99.90
41557;DHT22;27720;51.992;5.890;2023-12-28T23:31:25;13.50;99.90
41557;DHT22;27720;51.992;5.890;2023-12-28T23:33:51;13.50;99.90
41557;DHT22;27720;51.992;5.890;2023-12-28T23:36:18;13.40;99.90
41557;DHT22;27720;51.992;5.890;2023-12-28T23:38:43;13.40;99.90
41557;DHT22;27720;51.992;5.890;2023-12-28T23:41:09;13.40;99.90
41557;DHT22;27720;51.992;5.890;2023-12-28T23:43:35;13.30;99.90
41557;DHT22;27720;51.992;5.890;2023-12-28T23:46:00;13.30;99.90
41557;DHT22;27720;51.992;5.890;2023-12-28T23:48:26;13.20;99.90
41557;DHT22;27720;51.992;5.890;2023-12-28T23:50:52;13.20;99.90
41557;DHT22;27720;51.992;5.890;2023-12-28T23:53:17;13.20;99.90
41557;DHT22;27720;51.992;5.890;2023-12-28T23:55:43;13.20;99.90
41557;DHT22;27720;51.992;5.890;2023-12-28T23:58:09;13.20;99.90
